Meteo Giornale » Osservazioni meteo Stati Uniti (USA) » Peru
ore: 13:59 - Osservazioni Meteo Peru
Lat. 41° 21' N Lon. 89° 9' W Alt. 199 metri s.l.m.
34 °C
Sereno
Temp. 24 Ore
0 °C
34 °C
Sud/Sud-Ovest
11.1 Km/h
Dew point 24 °C
Umidità 56 %
Visibilità 10 Km
Il sole sorge alle ore 06:23
Il sole tramonta alle ore 19:29
| Data e Ora | Cielo e Fenomeni | T °C | DP °C | Um. % | Pres. hPa | Vis. km | Vento km/h | |
|---|---|---|---|---|---|---|---|---|
| Oggi h: 13:59 | Sereno | 34 | 24 | 56 | 1015 | 10 | S/SO 11.1 | |
| Oggi h: 13:39 | Sereno | 34 | 24 | 56 | 1015 | 10 | S/SO 11.1 | |
| Oggi h: 13:19 | Sereno | 33 | 24 | 59 | 1015 | 10 | S/SO 11.1 | |
| Oggi h: 12:59 | Sereno | 33 | 25 | 62 | 1015 | 10 | S/SO 11.1 | |
| Oggi h: 12:40 | Sereno | 33 | 24 | 59 | 1015 | 10 | O/SO 9.3 | |
| Oggi h: 12:21 | Sereno | 32 | 24 | 62 | 1015 | 10 | S/SO 9.3 | |
| Oggi h: 11:59 | Sereno | 32 | 24 | 62 | 1015 | 10 | N 5.5 | |
| Oggi h: 11:39 | Sereno | 32 | 24 | 62 | 1016 | 10 | S/SO 7.4 | |
| Oggi h: 11:19 | Sereno | 31 | 24 | 66 | 1016 | 10 | SO 7.4 | |
| Oggi h: 10:59 | Sereno | 30 | 24 | 70 | 1016 | 10 | SO 9.3 | |
| Oggi h: 10:39 | Nuvoloso | 29 | 23 | 70 | 1016 | 10 | SO 9.3 | |
| Oggi h: 10:19 | Nuvoloso | 29 | 23 | 70 | 1016 | 10 | SO 7.4 | |
| Oggi h: 09:58 | Nuvoloso | 28 | 23 | 74 | 1016 | 10 | SO 7.4 | |
| Oggi h: 09:40 | Nuvoloso | 28 | 23 | 74 | 1016 | 10 | SO 7.4 | |
| Oggi h: 09:21 | Sereno | 28 | 23 | 74 | 1016 | 10 | O/SO 7.4 | |
| Oggi h: 08:59 | Sereno | 27 | 23 | 78 | 1016 | 10 | N 5.5 | |
| Oggi h: 08:39 | Sereno | 26 | 22 | 78 | 1016 | 10 | N 0 | |
| Oggi h: 08:21 | Sereno | 26 | 22 | 78 | 1016 | 10 | N 5.5 | |
| Oggi h: 07:59 | Sereno | 25 | 22 | 83 | 1016 | 10 | N 5.5 | |
| Oggi h: 07:39 | Sereno | 24 | 22 | 88 | 1016 | 10 | N 0 | |
| Oggi h: 07:15 | Sereno | 0 | 0 | 88 | 1015 | 10 | S/SO 5.5 | |
| Oggi h: 06:59 | Sereno | 23 | 22 | 94 | 1015 | 10 | N 5.5 | |
| Oggi h: 06:39 | Sereno | 22 | 22 | 100 | 1015 | 10 | S/SO 7.4 | |
| Oggi h: 06:19 | Sereno | 23 | 22 | 94 | 1015 | 10 | S/SO 7.4 | |
| Oggi h: 06:03 | Sereno | 23 | 22 | 94 | 1015 | 10 | N 5.5 | |
| Oggi h: 05:40 | Sereno | 24 | 22 | 88 | 1015 | 10 | S/SO 7.4 | |
| Oggi h: 05:19 | Sereno | 24 | 22 | 88 | 1014 | 10 | S/SO 7.4 | |
| Oggi h: 05:01 | Sereno | 24 | 22 | 88 | 1014 | 10 | N 5.5 | |
| Oggi h: 04:39 | Sereno | 24 | 22 | 88 | 1014 | 10 | S/SO 9.3 | |
| Oggi h: 04:19 | Sereno | 24 | 22 | 88 | 1014 | 10 | S/SO 9.3 | |
| Oggi h: 03:59 | Sereno | 24 | 23 | 94 | 1014 | 10 | S/SO 11.1 | |
| Oggi h: 03:42 | Sereno | 24 | 22 | 88 | 1014 | 10 | S/SO 7.4 | |
| Oggi h: 03:19 | Sereno | 25 | 22 | 83 | 1014 | 10 | SO 9.3 | |
| Oggi h: 02:59 | Sereno | 25 | 23 | 88 | 1014 | 10 | SO 9.3 | |
| Oggi h: 02:43 | Sereno | 25 | 23 | 88 | 1015 | 10 | SO 9.3 | |
| Oggi h: 02:19 | Sereno | 26 | 23 | 83 | 1015 | 10 | O/SO 7.4 | |
| Oggi h: 01:59 | Sereno | 25 | 23 | 88 | 1015 | 10 | O/SO 7.4 | |
| Oggi h: 01:40 | Sereno | 24 | 23 | 94 | 1014 | 10 | SO 7.4 | |
| Oggi h: 01:22 | Sereno | 24 | 22 | 88 | 1014 | 10 | S/SO 9.3 | |
| Oggi h: 00:59 | Sereno | 24 | 22 | 88 | 1014 | 10 | S 11.1 | |
| Oggi h: 00:41 | Sereno | 24 | 22 | 88 | 1014 | 10 | S 9.3 | |
| Oggi h: 00:19 | Sereno | 24 | 23 | 94 | 1014 | 10 | S 7.4 | |
| Ieri h: 23:59 | Sereno | 25 | 23 | 88 | 1014 | 10 | S 9.3 | |
| Ieri h: 23:42 | Sereno | 25 | 23 | 88 | 1014 | 10 | S 7.4 | |
| Ieri h: 23:19 | Sereno | 25 | 23 | 88 | 1014 | 10 | N 5.5 | |
| Ieri h: 22:59 | Sereno | 25 | 23 | 88 | 1014 | 10 | N 5.5 | |
| Ieri h: 22:39 | Sereno | 25 | 23 | 88 | 1014 | 10 | N 0 | |
| Ieri h: 22:21 | Sereno | 25 | 24 | 94 | 1014 | 10 | N 0 | |
| Ieri h: 21:50 | Nuvoloso | 0 | 0 | 100 | 1014 | 10 | N 0 | |
| Ieri h: 21:40 | Pioggia | 26 | 24 | 88 | 1014 | 10 | N 0 | |
| Ieri h: 21:19 | Sereno | 26 | 24 | 88 | 1014 | 10 | N 5.5 | |
| Ieri h: 20:59 | Sereno | 26 | 23 | 83 | 1014 | 10 | S/SE 7.4 | |
| Ieri h: 20:39 | Sereno | 26 | 24 | 88 | 1014 | 10 | N 5.5 | |
| Ieri h: 20:20 | Sereno | 26 | 24 | 88 | 1014 | 10 | N 0 | |
| Ieri h: 19:59 | Sereno | 28 | 24 | 78 | 1013 | 10 | N 5.5 | |
| Ieri h: 19:39 | Nuvoloso | 28 | 24 | 78 | 1013 | 10 | S 7.4 | |
| Ieri h: 19:20 | Molto Nuvoloso | 28 | 24 | 78 | 1013 | 10 | N 5.5 | |
| Ieri h: 18:59 | Molto Nuvoloso | 29 | 25 | 79 | 1013 | 10 | N 0 | |
| Ieri h: 18:39 | Nuvoloso | 29 | 25 | 79 | 1013 | 10 | S 7.4 | |
| Ieri h: 18:21 | Molto Nuvoloso | 29 | 25 | 79 | 1013 | 10 | S 7.4 | |
| Ieri h: 17:59 | Molto Nuvoloso | 31 | 23 | 62 | 1013 | 10 | N 5.5 | |
| Ieri h: 17:39 | Molto Nuvoloso | 31 | 23 | 62 | 1013 | 10 | SO 7.4 | |
| Ieri h: 17:19 | Molto Nuvoloso | 32 | 23 | 59 | 1013 | 10 | S/SO 11.1 | |
| Ieri h: 16:59 | Nuvoloso | 32 | 23 | 59 | 1013 | 10 | S/SO 11.1 | |
| Ieri h: 16:41 | Sereno | 32 | 22 | 55 | 1013 | 10 | SO 11.1 | |
| Ieri h: 16:19 | Nuvoloso | 32 | 23 | 59 | 1013 | 10 | S/SO 11.1 | |
| Ieri h: 15:59 | Nuvoloso | 33 | 23 | 55 | 1013 | 10 | S/SO 11.1 | |
| Ieri h: 15:39 | Nuvoloso | 33 | 23 | 55 | 1013 | 10 | S/SO 11.1 | |
| Ieri h: 15:21 | Nuvoloso | 32 | 23 | 59 | 1013 | 10 | S/SO 13 | |
| Ieri h: 15:01 | Nuvoloso | 33 | 22 | 52 | 1013 | 10 | S/SO 16.7 | |
| Ieri h: 14:39 | Molto Nuvoloso | 33 | 22 | 52 | 1013 | 10 | SO 16.7 | |



